Time;durP1;ratioP1;P1;durP2;ratioP2;P2;SDS_P1;SDS_P2;PMS_P1;PMS_P2;Temp;Humidity;BMP_temperature;BMP_pressure;BME280_temperature;BME280_humidity;BME280_pressure;Samples;Min_cycle;Max_cycle;Signal;HPM_P1;HPM_P2
2022/01/20 00:02:35;;;;;;;11.13;10.13;;;;;;;;;;7329593;19;162578;-14
2022/01/20 00:05:25;;;;;;;8.90;8.10;;;;;;;;;;7326171;19;154431;-13
2022/01/20 08:35:43;;;;;;;2.10;2.00;;;;;;;;;;7372926;19;132545;-14
2022/01/20 08:38:17;;;;;;;2.20;1.92;;;;;;;;;;7362850;19;153528;-14
2022/01/20 08:40:49;;;;;;;2.50;2.30;;;;;;;;;;7362446;19;161779;-14
2022/01/20 08:43:20;;;;;;;2.10;1.85;;;;;;;;;;7361800;19;162384;-15
2022/01/20 08:45:52;;;;;;;2.40;2.20;;;;;;;;;;7362560;19;154097;-14
2022/01/20 08:48:25;;;;;;;2.08;1.98;;;;;;;;;;7362623;19;153580;-16
2022/01/20 08:51:19;;;;;;;1.95;1.75;;;;;;;;;;7363321;19;162043;-14
2022/01/20 08:54:20;;;;;;;1.70;1.47;;;;;;;;;;7360883;19;162736;-15
2022/01/20 08:57:04;;;;;;;2.15;2.05;;;;;;;;;;7363984;19;153853;-15
2022/01/20 08:59:40;;;;;;;3.30;2.03;;;;;;;;;;7363012;19;153667;-14
2022/01/20 09:02:12;;;;;;;3.17;2.17;;;;;;;;;;7362160;19;162280;-16
2022/01/20 09:04:44;;;;;;;2.08;1.98;;;;;;;;;;7360015;19;162432;-14
2022/01/20 09:07:49;;;;;;;1.73;1.63;;;;;;;;;;7362164;19;154378;-14
2022/01/20 09:10:21;;;;;;;2.15;2.00;;;;;;;;;;7361882;19;153955;-15
2022/01/20 09:15:41;;;;;;;2.05;1.90;;;;;;;;;;7360985;19;162643;-14
2022/01/20 09:18:25;;;;;;;1.80;1.70;;;;;;;;;;7362299;19;153986;-15
2022/01/20 09:20:57;;;;;;;1.90;1.80;;;;;;;;;;7361744;19;153916;-14
2022/01/20 09:23:31;;;;;;;1.80;1.70;;;;;;;;;;7356915;19;161748;-13
2022/01/20 09:26:05;;;;;;;1.85;1.75;;;;;;;;;;7362720;19;162782;-15
2022/01/20 09:28:41;;;;;;;2.20;2.00;;;;;;;;;;7361460;19;154014;-15
2022/01/20 09:31:12;;;;;;;1.83;1.73;;;;;;;;;;7361521;19;153578;-14
2022/01/20 09:33:45;;;;;;;1.77;1.67;;;;;;;;;;7360170;19;161908;-16
2022/01/20 09:36:19;;;;;;;1.77;1.67;;;;;;;;;;7336318;19;162747;-16
2022/01/20 09:38:53;;;;;;;1.88;1.77;;;;;;;;;;7336489;19;153946;-14
2022/01/20 09:41:38;;;;;;;1.80;1.70;;;;;;;;;;7332120;19;153768;-15
2022/01/20 09:44:09;;;;;;;1.95;1.85;;;;;;;;;;7331107;19;161866;-14
2022/01/20 09:46:41;;;;;;;1.85;1.75;;;;;;;;;;7331737;19;162550;-14
2022/01/20 09:49:24;;;;;;;1.70;1.60;;;;;;;;;;7332414;19;154284;-14
2022/01/20 09:51:57;;;;;;;2.20;2.10;;;;;;;;;;7331906;19;154066;-15
2022/01/20 09:54:41;;;;;;;1.80;1.70;;;;;;;;;;7336371;19;161935;-14
2022/01/20 09:57:17;;;;;;;1.90;1.80;;;;;;;;;;7331613;19;162416;-14
2022/01/20 09:59:50;;;;;;;1.83;1.73;;;;;;;;;;7332258;19;154191;-15
2022/01/20 10:02:22;;;;;;;1.60;1.50;;;;;;;;;;7333220;19;153892;-14
2022/01/20 10:04:58;;;;;;;1.70;1.60;;;;;;;;;;7330257;19;162042;-14
2022/01/20 10:07:35;;;;;;;1.60;1.50;;;;;;;;;;7331793;19;162476;-14
2022/01/20 10:10:21;;;;;;;1.95;1.70;;;;;;;;;;7331897;19;153939;-14
2022/01/20 10:13:07;;;;;;;1.60;1.50;;;;;;;;;;7331704;19;153567;-15
2022/01/20 10:16:03;;;;;;;1.80;1.70;;;;;;;;;;7332418;19;161846;-15
2022/01/20 10:18:57;;;;;;;1.70;1.60;;;;;;;;;;7332344;19;162589;-14
2022/01/20 10:21:38;;;;;;;1.60;1.50;;;;;;;;;;7331377;19;153759;-14
2022/01/20 10:24:35;;;;;;;1.30;1.25;;;;;;;;;;7332523;19;153505;-14
2022/01/20 10:27:30;;;;;;;1.88;1.55;;;;;;;;;;7329656;19;161998;-15
2022/01/20 10:30:04;;;;;;;1.42;1.33;;;;;;;;;;7330651;19;162427;-15
2022/01/20 10:32:42;;;;;;;1.80;1.70;;;;;;;;;;7331106;19;154511;-14
2022/01/20 10:35:16;;;;;;;1.90;1.65;;;;;;;;;;7328608;19;153770;-15
2022/01/20 10:37:59;;;;;;;1.67;1.58;;;;;;;;;;7331239;19;161835;-14
2022/01/20 10:40:49;;;;;;;1.30;1.30;;;;;;;;;;7330635;19;162258;-15
2022/01/20 10:43:26;;;;;;;1.75;1.65;;;;;;;;;;7330887;19;153998;-15
2022/01/20 10:46:05;;;;;;;1.60;1.50;;;;;;;;;;7328767;19;153784;-14
2022/01/20 10:48:37;;;;;;;1.63;1.52;;;;;;;;;;7328206;19;162160;-14
2022/01/20 10:51:18;;;;;;;1.83;1.73;;;;;;;;;;7329707;19;162364;-14
2022/01/20 10:54:01;;;;;;;1.55;1.45;;;;;;;;;;7332691;19;154200;-14
2022/01/20 10:56:48;;;;;;;1.80;1.40;;;;;;;;;;7327078;19;154247;-14
2022/01/20 10:59:24;;;;;;;1.80;1.70;;;;;;;;;;7329200;19;161607;-14
2022/01/20 11:02:10;;;;;;;1.80;1.70;;;;;;;;;;7329304;19;162425;-15
2022/01/20 11:04:43;;;;;;;1.73;1.63;;;;;;;;;;7329283;19;154030;-14
2022/01/20 11:07:16;;;;;;;1.60;1.50;;;;;;;;;;7329470;19;153566;-14
2022/01/20 11:09:58;;;;;;;1.95;1.77;;;;;;;;;;7329141;19;161981;-15
2022/01/20 11:12:49;;;;;;;1.60;1.50;;;;;;;;;;7330388;19;162205;-14
2022/01/20 11:15:35;;;;;;;1.80;1.70;;;;;;;;;;7329645;19;153920;-14
2022/01/20 11:18:09;;;;;;;1.50;1.50;;;;;;;;;;7329291;19;153763;-14
2022/01/20 11:20:44;;;;;;;1.43;1.40;;;;;;;;;;7328983;19;161849;-14
2022/01/20 11:23:17;;;;;;;1.85;1.73;;;;;;;;;;7330877;19;162646;-14
2022/01/20 11:26:09;;;;;;;1.40;1.40;;;;;;;;;;7327511;19;153934;-14
2022/01/20 11:29:03;;;;;;;1.23;1.23;;;;;;;;;;7330489;19;153676;-14
2022/01/20 11:32:02;;;;;;;1.50;1.40;;;;;;;;;;7328938;19;161905;-14
2022/01/20 11:35:03;;;;;;;1.50;1.40;;;;;;;;;;7326591;19;162504;-14
2022/01/20 11:37:37;;;;;;;1.33;1.33;;;;;;;;;;7330097;19;153965;-14
2022/01/20 11:40:22;;;;;;;1.50;1.40;;;;;;;;;;7329974;19;153558;-14
2022/01/20 11:43:03;;;;;;;1.45;1.35;;;;;;;;;;7329487;19;162202;-14
2022/01/20 11:45:37;;;;;;;1.33;1.25;;;;;;;;;;7328297;19;162560;-16
2022/01/20 11:48:20;;;;;;;1.40;1.30;;;;;;;;;;7328547;19;154402;-14
2022/01/20 11:51:08;;;;;;;1.45;1.20;;;;;;;;;;7328711;19;153513;-15
2022/01/20 11:53:41;;;;;;;1.20;1.20;;;;;;;;;;7331424;19;161936;-14
2022/01/20 11:56:13;;;;;;;1.27;1.27;;;;;;;;;;7329170;19;162449;-14
2022/01/20 11:58:52;;;;;;;1.40;1.30;;;;;;;;;;7329267;19;154028;-14
2022/01/20 12:01:27;;;;;;;1.40;1.23;;;;;;;;;;7328188;19;153567;-15
2022/01/20 12:04:01;;;;;;;1.50;1.40;;;;;;;;;;7329039;19;161940;-15
2022/01/20 12:06:46;;;;;;;1.40;1.30;;;;;;;;;;7325159;19;162735;-14
2022/01/20 12:09:31;;;;;;;1.73;1.60;;;;;;;;;;7332752;19;154052;-14
2022/01/20 12:12:02;;;;;;;1.83;1.73;;;;;;;;;;7329204;19;153567;-14
2022/01/20 12:14:38;;;;;;;1.90;1.80;;;;;;;;;;7328746;19;161795;-21
2022/01/20 12:17:12;;;;;;;1.88;1.77;;;;;;;;;;7328518;19;162450;-14
2022/01/20 12:19:50;;;;;;;2.00;1.90;;;;;;;;;;7329129;19;153963;-13
2022/01/20 12:22:21;;;;;;;1.85;1.73;;;;;;;;;;7329629;19;153677;-14
2022/01/20 12:24:54;;;;;;;1.80;1.70;;;;;;;;;;7332559;19;161785;-14
2022/01/20 12:27:28;;;;;;;1.67;1.58;;;;;;;;;;7325576;19;162724;-14
2022/01/20 12:30:00;;;;;;;1.73;1.50;;;;;;;;;;7328763;19;154498;-14
2022/01/20 12:32:31;;;;;;;1.92;1.83;;;;;;;;;;7328428;19;153524;-14
2022/01/20 12:35:06;;;;;;;1.60;1.60;;;;;;;;;;7326059;19;161735;-15
2022/01/20 12:37:40;;;;;;;1.52;1.48;;;;;;;;;;7328608;19;162452;-14
2022/01/20 12:40:22;;;;;;;1.80;1.70;;;;;;;;;;7327092;19;154000;-14
2022/01/20 12:42:53;;;;;;;1.77;1.67;;;;;;;;;;7326956;19;153814;-13
2022/01/20 12:48:15;;;;;;;1.45;1.38;;;;;;;;;;7327675;19;162433;-13
2022/01/20 12:51:01;;;;;;;1.65;1.55;;;;;;;;;;7328509;19;153977;-14
2022/01/20 12:53:38;;;;;;;1.73;1.63;;;;;;;;;;7329702;19;153596;-14
2022/01/20 12:56:11;;;;;;;1.55;1.45;;;;;;;;;;7331367;19;161835;-13
2022/01/20 12:58:51;;;;;;;1.63;1.52;;;;;;;;;;7329543;19;162500;-14
2022/01/20 13:01:23;;;;;;;1.75;1.65;;;;;;;;;;7327821;19;153969;-14
2022/01/20 13:03:54;;;;;;;1.60;1.50;;;;;;;;;;7327770;19;153886;-13
2022/01/20 13:06:29;;;;;;;1.63;1.52;;;;;;;;;;7326267;19;161794;-14
2022/01/20 13:09:07;;;;;;;1.50;1.40;;;;;;;;;;7330086;19;162361;-13
2022/01/20 13:11:45;;;;;;;1.55;1.45;;;;;;;;;;7332759;19;154041;-13
2022/01/20 13:14:16;;;;;;;1.60;1.50;;;;;;;;;;7334209;19;153615;-13
2022/01/20 13:16:55;;;;;;;1.52;1.52;;;;;;;;;;7332648;19;162154;-13
2022/01/20 13:19:35;;;;;;;1.73;1.63;;;;;;;;;;7337034;19;162489;-13
2022/01/20 13:22:20;;;;;;;1.40;1.30;;;;;;;;;;7334024;19;154007;-14
2022/01/20 13:24:53;;;;;;;1.70;1.60;;;;;;;;;;7336061;19;153589;-14
2022/01/20 13:27:24;;;;;;;1.83;1.40;;;;;;;;;;7335888;19;161739;-14
2022/01/20 13:29:56;;;;;;;1.60;1.50;;;;;;;;;;7333361;19;162394;-14
2022/01/20 13:32:27;;;;;;;1.63;1.52;;;;;;;;;;7333663;19;154027;-13
2022/01/20 13:35:00;;;;;;;1.70;1.60;;;;;;;;;;7331660;19;153584;-15
2022/01/20 13:37:37;;;;;;;2.25;1.80;;;;;;;;;;7335900;19;161947;-14
2022/01/20 13:40:11;;;;;;;1.73;1.60;;;;;;;;;;7337797;19;162358;-14
2022/01/20 13:45:00;;;;;;;1.77;1.67;;;;;;;;;;7333462;19;154375;-13
2022/01/20 13:45:37;;;;;;;1.70;1.60;;;;;;;;;;7332203;19;153682;-15
2022/01/20 13:48:10;;;;;;;1.95;1.70;;;;;;;;;;7334392;19;162054;-14
2022/01/20 13:50:43;;;;;;;1.65;1.55;;;;;;;;;;7336204;19;162847;-14
2022/01/20 13:53:18;;;;;;;;;;;;;;;;;;7334607;19;154672;-13
2022/01/20 13:55:50;;;;;;;1.52;1.42;;;;;;;;;;7336749;19;153704;-14
2022/01/20 13:58:25;;;;;;;1.60;1.50;;;;;;;;;;7332881;19;162088;-14
2022/01/20 14:00:58;;;;;;;1.60;1.45;;;;;;;;;;7336362;19;162335;-15
2022/01/20 14:03:29;;;;;;;1.50;1.40;;;;;;;;;;7336306;19;154271;-15
2022/01/20 14:06:01;;;;;;;1.80;1.70;;;;;;;;;;7335415;19;153330;-14
2022/01/20 14:08:37;;;;;;;1.45;1.40;;;;;;;;;;7332766;19;161761;-15
2022/01/20 14:11:08;;;;;;;1.63;1.40;;;;;;;;;;7335258;19;162505;-15
2022/01/20 14:13:39;;;;;;;1.55;1.45;;;;;;;;;;7336777;19;154145;-16
2022/01/20 14:16:10;;;;;;;2.70;1.58;;;;;;;;;;7331478;19;153630;-14
2022/01/20 14:18:45;;;;;;;1.70;1.30;;;;;;;;;;7332014;19;162066;-15
2022/01/20 14:21:20;;;;;;;1.30;1.30;;;;;;;;;;7329574;19;162527;-15
2022/01/20 14:23:55;;;;;;;1.48;1.33;;;;;;;;;;7334422;19;154169;-15
2022/01/20 14:26:29;;;;;;;1.33;1.27;;;;;;;;;;7335726;19;153729;-15
2022/01/20 14:29:01;;;;;;;1.50;1.40;;;;;;;;;;7332600;19;161808;-14
2022/01/20 14:31:32;;;;;;;1.48;1.40;;;;;;;;;;7335241;19;162630;-13
2022/01/20 14:34:03;;;;;;;1.30;1.20;;;;;;;;;;7334047;19;153967;-14
2022/01/20 14:36:34;;;;;;;1.63;1.33;;;;;;;;;;7334114;19;153597;-15
2022/01/20 14:39:09;;;;;;;2.72;1.80;;;;;;;;;;7334531;19;161922;-13
2022/01/20 14:41:40;;;;;;;1.95;1.80;;;;;;;;;;7333363;19;162332;-14
2022/01/20 14:44:11;;;;;;;2.20;1.90;;;;;;;;;;7330036;19;154366;-17
2022/01/20 14:46:42;;;;;;;1.80;1.70;;;;;;;;;;7331566;19;153561;-13
2022/01/20 14:49:14;;;;;;;1.95;1.75;;;;;;;;;;7328348;19;161969;-13
2022/01/20 14:51:45;;;;;;;2.10;1.60;;;;;;;;;;7331637;19;162420;-14
2022/01/20 14:54:19;;;;;;;1.83;1.73;;;;;;;;;;7331680;19;154065;-14
2022/01/20 14:56:50;;;;;;;2.28;1.83;;;;;;;;;;7330439;19;153493;-14
2022/01/20 14:59:22;;;;;;;1.73;1.63;;;;;;;;;;7330982;19;162108;-14
2022/01/20 15:01:53;;;;;;;4.57;1.80;;;;;;;;;;7331076;19;162365;-15
2022/01/20 15:04:24;;;;;;;1.70;1.50;;;;;;;;;;7331412;19;154292;-15
2022/01/20 15:06:55;;;;;;;1.83;1.70;;;;;;;;;;7331075;19;153466;-15
2022/01/20 15:09:29;;;;;;;1.75;1.63;;;;;;;;;;7328320;19;162513;-15
2022/01/20 15:12:01;;;;;;;1.90;1.50;;;;;;;;;;7330486;19;162337;-15
2022/01/20 15:14:32;;;;;;;1.98;1.85;;;;;;;;;;7330103;19;154183;-16
2022/01/20 15:17:04;;;;;;;2.13;1.70;;;;;;;;;;7331182;19;153563;-14
2022/01/20 15:19:36;;;;;;;1.92;1.83;;;;;;;;;;7330720;19;161811;-16
2022/01/20 15:22:07;;;;;;;1.55;1.45;;;;;;;;;;7330563;19;162378;-15
2022/01/20 15:24:41;;;;;;;1.80;1.70;;;;;;;;;;7330720;19;154000;-14
2022/01/20 15:27:12;;;;;;;1.60;1.50;;;;;;;;;;7330832;19;153592;-15
2022/01/20 15:29:43;;;;;;;1.80;1.70;;;;;;;;;;7327728;19;161822;-14
2022/01/20 15:32:26;;;;;;;1.90;1.80;;;;;;;;;;7328466;19;162283;-14
2022/01/20 15:34:57;;;;;;;1.73;1.63;;;;;;;;;;7327761;19;153986;-14
2022/01/20 15:37:28;;;;;;;1.58;1.48;;;;;;;;;;7330257;19;153884;-14
2022/01/20 15:40:02;;;;;;;1.67;1.58;;;;;;;;;;7329908;19;161924;-14
2022/01/20 15:42:34;;;;;;;1.60;1.50;;;;;;;;;;7330058;19;162502;-15
2022/01/20 15:45:06;;;;;;;2.00;1.42;;;;;;;;;;7330189;19;153974;-14
2022/01/20 15:47:38;;;;;;;1.67;1.58;;;;;;;;;;7330189;19;153657;-15
2022/01/20 15:50:13;;;;;;;1.90;1.80;;;;;;;;;;7326948;19;161981;-14
2022/01/20 15:52:44;;;;;;;1.80;1.70;;;;;;;;;;7329727;19;162761;-14
2022/01/20 15:55:18;;;;;;;1.95;1.85;;;;;;;;;;7329826;19;154000;-14
2022/01/20 15:57:52;;;;;;;1.80;1.70;;;;;;;;;;7329388;19;153505;-15
2022/01/20 16:00:26;;;;;;;1.85;1.75;;;;;;;;;;7329388;19;161950;-15
2022/01/20 16:02:57;;;;;;;1.80;1.70;;;;;;;;;;7329448;19;162392;-15
2022/01/20 16:05:29;;;;;;;1.70;1.60;;;;;;;;;;7329596;19;154034;-14
2022/01/20 16:08:01;;;;;;;1.40;1.40;;;;;;;;;;7329457;19;153534;-15
2022/01/20 16:10:34;;;;;;;1.60;1.50;;;;;;;;;;7329086;19;161852;-14
2022/01/20 16:13:06;;;;;;;2.33;1.60;;;;;;;;;;7329082;19;162594;-15
2022/01/20 16:15:37;;;;;;;1.73;1.63;;;;;;;;;;7329422;19;154234;-15
2022/01/20 16:18:11;;;;;;;1.80;1.60;;;;;;;;;;7328089;19;153559;-15
2022/01/20 16:20:42;;;;;;;1.92;1.58;;;;;;;;;;7328545;19;161782;-14
2022/01/20 16:23:14;;;;;;;2.90;1.90;;;;;;;;;;7328773;19;162501;-14
2022/01/20 16:25:48;;;;;;;1.65;1.35;;;;;;;;;;7329063;19;153967;-14
2022/01/20 16:28:20;;;;;;;1.60;1.50;;;;;;;;;;7328674;19;153535;-15
2022/01/20 16:30:51;;;;;;;1.75;1.40;;;;;;;;;;7328424;19;161981;-14
2022/01/20 16:33:22;;;;;;;1.98;1.60;;;;;;;;;;7327169;19;162465;-15
2022/01/20 16:35:53;;;;;;;1.73;1.63;;;;;;;;;;7327631;19;154010;-14
2022/01/20 16:38:25;;;;;;;1.92;1.83;;;;;;;;;;7328636;19;153441;-15
2022/01/20 16:41:01;;;;;;;1.42;1.33;;;;;;;;;;7327900;19;161841;-14
2022/01/20 16:43:32;;;;;;;2.53;1.60;;;;;;;;;;7327865;19;162624;-14
2022/01/20 16:46:03;;;;;;;1.92;1.42;;;;;;;;;;7332020;19;154141;-15
2022/01/20 16:48:35;;;;;;;1.58;1.48;;;;;;;;;;7334893;19;153560;-15
2022/01/20 16:51:06;;;;;;;1.63;1.52;;;;;;;;;;7334497;19;161987;-15
2022/01/20 16:53:39;;;;;;;1.88;1.70;;;;;;;;;;7334581;19;162671;-14
2022/01/20 16:56:13;;;;;;;1.65;1.55;;;;;;;;;;7334791;19;154054;-14
2022/01/20 16:58:44;;;;;;;1.60;1.50;;;;;;;;;;7334590;19;153512;-14
2022/01/20 17:01:16;;;;;;;1.40;1.30;;;;;;;;;;7334409;19;161847;-14
2022/01/20 17:03:47;;;;;;;1.65;1.55;;;;;;;;;;7334756;19;162563;-14
2022/01/20 17:06:21;;;;;;;1.60;1.50;;;;;;;;;;7334867;19;153956;-13
2022/01/20 17:08:52;;;;;;;1.52;1.42;;;;;;;;;;7334383;19;153660;-14
2022/01/20 17:11:26;;;;;;;1.73;1.63;;;;;;;;;;7334467;19;161886;-14
2022/01/20 17:13:57;;;;;;;1.73;1.52;;;;;;;;;;7334299;19;162459;-15
2022/01/20 17:16:29;;;;;;;1.77;1.67;;;;;;;;;;7334328;19;153943;-14
2022/01/20 17:19:00;;;;;;;2.33;1.23;;;;;;;;;;7334413;19;153557;-13
2022/01/20 17:21:31;;;;;;;1.90;1.67;;;;;;;;;;7333975;19;162093;-15
2022/01/20 17:24:02;;;;;;;1.50;1.40;;;;;;;;;;7333580;19;162575;-14
2022/01/20 17:26:37;;;;;;;1.60;1.50;;;;;;;;;;7334219;19;154230;-14
2022/01/20 17:29:08;;;;;;;1.30;1.20;;;;;;;;;;7333809;19;153744;-14
2022/01/20 17:31:40;;;;;;;2.25;1.30;;;;;;;;;;7333514;19;161831;-15
2022/01/20 17:34:11;;;;;;;1.50;1.40;;;;;;;;;;7332221;19;162676;-14
2022/01/20 17:36:44;;;;;;;1.48;1.38;;;;;;;;;;7333803;19;154044;-13
2022/01/20 17:39:16;;;;;;;1.50;1.40;;;;;;;;;;7333753;19;153608;-14
2022/01/20 17:41:50;;;;;;;1.40;1.30;;;;;;;;;;7333370;19;161886;-14
2022/01/20 17:44:21;;;;;;;1.52;1.42;;;;;;;;;;7333574;19;162183;-15
2022/01/20 17:46:53;;;;;;;1.52;1.42;;;;;;;;;;7333651;19;154225;-14
2022/01/20 17:49:24;;;;;;;1.42;1.33;;;;;;;;;;7333338;19;153803;-15
2022/01/20 17:51:56;;;;;;;1.38;1.20;;;;;;;;;;7331966;19;162084;-16
2022/01/20 17:54:27;;;;;;;1.42;1.30;;;;;;;;;;7332834;19;162312;-13
2022/01/20 17:57:02;;;;;;;1.15;1.15;;;;;;;;;;7332455;19;153952;-14
2022/01/20 17:59:35;;;;;;;1.48;1.38;;;;;;;;;;7333066;19;153778;-14
2022/01/20 18:02:06;;;;;;;1.17;1.08;;;;;;;;;;7332906;19;161948;-14
2022/01/20 18:04:38;;;;;;;1.33;1.20;;;;;;;;;;7332701;19;162537;-14
2022/01/20 18:07:10;;;;;;;1.75;1.30;;;;;;;;;;7333010;19;153958;-14
2022/01/20 18:09:41;;;;;;;1.80;1.30;;;;;;;;;;7332832;19;153959;-14
2022/01/20 18:12:15;;;;;;;1.25;1.15;;;;;;;;;;7332936;19;161830;-13
2022/01/20 18:14:46;;;;;;;1.08;1.02;;;;;;;;;;7332601;19;162456;-14
2022/01/20 18:17:21;;;;;;;1.25;1.15;;;;;;;;;;7332988;19;154148;-13
2022/01/20 18:19:52;;;;;;;1.27;1.10;;;;;;;;;;7332931;19;153691;-14
2022/01/20 18:22:24;;;;;;;1.83;1.23;;;;;;;;;;7332295;19;161826;-15
2022/01/20 18:24:55;;;;;;;2.47;1.10;;;;;;;;;;7332217;19;162565;-14
2022/01/20 18:27:29;;;;;;;1.50;1.20;;;;;;;;;;7332583;19;154038;-14
2022/01/20 18:30:01;;;;;;;1.00;1.00;;;;;;;;;;7331862;19;153563;-15
2022/01/20 18:32:32;;;;;;;1.13;1.13;;;;;;;;;;7332094;19;161997;-15
2022/01/20 18:35:03;;;;;;;1.30;1.20;;;;;;;;;;7329933;19;162615;-15
2022/01/20 18:37:35;;;;;;;2.08;1.05;;;;;;;;;;7332321;19;154028;-15
2022/01/20 18:40:11;;;;;;;1.42;1.33;;;;;;;;;;7332561;19;153868;-15
2022/01/20 18:42:45;;;;;;;1.52;1.42;;;;;;;;;;7331723;19;161803;-14
2022/01/20 18:45:17;;;;;;;1.23;1.13;;;;;;;;;;7331902;19;162443;-15
2022/01/20 18:47:50;;;;;;;1.48;1.38;;;;;;;;;;7331895;19;153978;-14
2022/01/20 18:50:22;;;;;;;1.10;1.10;;;;;;;;;;7331265;19;153530;-14
2022/01/20 18:52:54;;;;;;;1.40;1.30;;;;;;;;;;7331410;19;161836;-14
2022/01/20 18:55:25;;;;;;;1.42;1.33;;;;;;;;;;7331257;19;162637;-13
2022/01/20 18:58:00;;;;;;;1.45;1.35;;;;;;;;;;7331623;19;154172;-14
2022/01/20 19:00:31;;;;;;;1.40;1.30;;;;;;;;;;7330788;19;153701;-14
2022/01/20 19:03:02;;;;;;;1.52;1.33;;;;;;;;;;7330931;19;161992;-14
2022/01/20 19:05:34;;;;;;;1.00;1.00;;;;;;;;;;7330836;19;162364;-15
2022/01/20 19:08:05;;;;;;;1.60;1.50;;;;;;;;;;7329340;19;154084;-13
2022/01/20 19:10:37;;;;;;;1.67;1.20;;;;;;;;;;7328950;19;153564;-14
2022/01/20 19:13:11;;;;;;;1.55;1.30;;;;;;;;;;7326954;19;161964;-13
2022/01/20 19:15:42;;;;;;;1.50;1.10;;;;;;;;;;7327582;19;162923;-14
2022/01/20 19:18:14;;;;;;;2.35;1.77;;;;;;;;;;7331002;19;153904;-15
2022/01/20 19:20:45;;;;;;;1.40;1.30;;;;;;;;;;7330582;19;153614;-14
2022/01/20 19:23:16;;;;;;;1.50;1.40;;;;;;;;;;7333408;19;161893;-14
2022/01/20 19:25:47;;;;;;;1.23;1.13;;;;;;;;;;7334584;19;162375;-13
2022/01/20 19:28:22;;;;;;;1.23;1.13;;;;;;;;;;7330490;19;154005;-13
2022/01/20 19:30:56;;;;;;;3.72;1.30;;;;;;;;;;7329644;19;153688;-14
2022/01/20 19:33:27;;;;;;;1.30;1.13;;;;;;;;;;7332360;19;161946;-13
2022/01/20 19:35:58;;;;;;;1.15;1.08;;;;;;;;;;7333289;19;162695;-13
2022/01/20 19:38:30;;;;;;;1.25;1.10;;;;;;;;;;7334175;19;153947;-13
2022/01/20 19:41:01;;;;;;;1.48;1.20;;;;;;;;;;7333398;19;153596;-14
2022/01/20 19:43:35;;;;;;;2.25;1.25;;;;;;;;;;7333299;19;162101;-14
2022/01/20 19:46:08;;;;;;;1.63;1.10;;;;;;;;;;7333036;19;162455;-15
2022/01/20 19:48:40;;;;;;;1.92;1.30;;;;;;;;;;7333426;19;154020;-16
2022/01/20 19:51:11;;;;;;;1.33;1.20;;;;;;;;;;7331726;19;153668;-15
2022/01/20 19:53:43;;;;;;;1.25;0.93;;;;;;;;;;7332520;19;161969;-15
2022/01/20 19:56:14;;;;;;;0.88;0.88;;;;;;;;;;7333092;19;163900;-14
2022/01/20 19:58:49;;;;;;;1.38;0.90;;;;;;;;;;7333745;19;154362;-15
2022/01/20 20:01:20;;;;;;;2.17;1.20;;;;;;;;;;7332877;19;153553;-15
2022/01/20 20:03:54;;;;;;;2.90;1.70;;;;;;;;;;7332774;19;161795;-14
2022/01/20 20:06:25;;;;;;;1.02;0.93;;;;;;;;;;7332321;19;162670;-16
2022/01/20 20:08:56;;;;;;;1.67;1.20;;;;;;;;;;7333387;19;154152;-15
2022/01/20 20:11:27;;;;;;;1.40;1.15;;;;;;;;;;7332247;19;153504;-15
2022/01/20 20:14:02;;;;;;;0.88;0.80;;;;;;;;;;7332584;19;161954;-14
2022/01/20 20:16:33;;;;;;;3.20;1.25;;;;;;;;;;7331945;19;162441;-15
2022/01/20 20:19:06;;;;;;;1.27;1.00;;;;;;;;;;7331623;19;154013;-15
2022/01/20 20:21:37;;;;;;;1.85;1.02;;;;;;;;;;7333377;19;153493;-15
2022/01/20 20:24:11;;;;;;;2.00;0.95;;;;;;;;;;7331086;19;161753;-14
2022/01/20 20:26:44;;;;;;;0.75;0.70;;;;;;;;;;7328869;19;162381;-15
2022/01/20 20:29:19;;;;;;;1.80;0.90;;;;;;;;;;7329031;19;154231;-21
2022/01/20 20:31:50;;;;;;;1.23;1.08;;;;;;;;;;7330612;19;153526;-16
2022/01/20 20:34:23;;;;;;;2.67;0.98;;;;;;;;;;7327004;19;161885;-14
2022/01/20 20:36:55;;;;;;;2.17;1.00;;;;;;;;;;7328393;19;162412;-15
2022/01/20 20:39:27;;;;;;;1.10;0.95;;;;;;;;;;7328406;19;154576;-15
2022/01/20 20:41:59;;;;;;;1.17;0.90;;;;;;;;;;7327621;19;153633;-15
2022/01/20 20:44:33;;;;;;;1.58;0.88;;;;;;;;;;7331471;19;162005;-14
2022/01/20 20:47:05;;;;;;;0.90;0.80;;;;;;;;;;7331539;19;162389;-15
2022/01/20 20:49:37;;;;;;;1.45;0.85;;;;;;;;;;7330839;19;154642;-14
2022/01/20 20:52:13;;;;;;;1.25;1.00;;;;;;;;;;7326882;19;153609;-14
2022/01/20 20:54:46;;;;;;;1.20;1.10;;;;;;;;;;7330912;19;161990;-13
2022/01/20 20:57:17;;;;;;;1.93;0.80;;;;;;;;;;7330723;19;163069;-13
2022/01/20 20:59:51;;;;;;;1.52;0.80;;;;;;;;;;7330642;19;153971;-15
2022/01/20 21:02:23;;;;;;;1.10;1.00;;;;;;;;;;7327966;19;153808;-16
2022/01/20 21:04:54;;;;;;;1.50;0.95;;;;;;;;;;7327641;19;161982;-14
2022/01/20 21:07:25;;;;;;;0.93;0.88;;;;;;;;;;7325225;19;162688;-15
2022/01/20 21:09:57;;;;;;;3.35;1.10;;;;;;;;;;7327848;19;154098;-21
2022/01/20 21:12:28;;;;;;;1.35;0.90;;;;;;;;;;7326388;19;153574;-16
2022/01/20 21:15:02;;;;;;;1.27;0.90;;;;;;;;;;7326910;19;161819;-15
2022/01/20 21:17:35;;;;;;;2.67;0.98;;;;;;;;;;7327739;19;162393;-16
2022/01/20 21:20:08;;;;;;;1.20;0.93;;;;;;;;;;7327741;19;153981;-13
2022/01/20 21:22:39;;;;;;;;;;;;;;;;;;7328627;19;153502;-23
2022/01/20 21:25:11;;;;;;;1.40;1.02;;;;;;;;;;7329328;19;162349;-15
2022/01/20 21:27:42;;;;;;;0.82;0.80;;;;;;;;;;7329772;19;162354;-14
2022/01/20 21:30:18;;;;;;;1.20;0.80;;;;;;;;;;7327040;19;154005;-14
2022/01/20 21:32:51;;;;;;;1.52;0.90;;;;;;;;;;7333392;19;153626;-14
2022/01/20 21:35:24;;;;;;;1.30;1.08;;;;;;;;;;7334425;19;161884;-15
2022/01/20 21:37:55;;;;;;;1.67;0.77;;;;;;;;;;7335694;19;162485;-14
2022/01/20 21:40:27;;;;;;;0.93;0.93;;;;;;;;;;7335830;19;154127;-14
2022/01/20 21:42:58;;;;;;;1.42;1.08;;;;;;;;;;7336782;19;153543;-14
2022/01/20 21:45:32;;;;;;;1.77;0.98;;;;;;;;;;7336510;19;162133;-15
2022/01/20 21:48:04;;;;;;;0.95;0.80;;;;;;;;;;7336454;19;162350;-14
2022/01/20 21:50:37;;;;;;;1.13;0.90;;;;;;;;;;7337143;19;154463;-15
2022/01/20 21:53:08;;;;;;;1.15;0.90;;;;;;;;;;7335095;19;153511;-14
2022/01/20 21:55:40;;;;;;;1.70;0.80;;;;;;;;;;7336193;19;161976;-14
2022/01/20 21:58:12;;;;;;;2.45;1.15;;;;;;;;;;7335029;19;162394;-15
2022/01/20 22:00:48;;;;;;;0.88;0.70;;;;;;;;;;7336577;19;154076;-14
2022/01/20 22:03:21;;;;;;;1.63;0.85;;;;;;;;;;7336442;19;153696;-14
2022/01/20 22:05:53;;;;;;;0.80;0.70;;;;;;;;;;7335930;19;162159;-14
2022/01/20 22:08:24;;;;;;;0.82;0.70;;;;;;;;;;7334813;19;162538;-14
2022/01/20 22:10:56;;;;;;;0.90;0.80;;;;;;;;;;7336533;19;154207;-15
2022/01/20 22:13:32;;;;;;;1.52;0.82;;;;;;;;;;7334532;19;153477;-14
2022/01/20 22:16:08;;;;;;;0.93;0.90;;;;;;;;;;7335703;19;162067;-14
2022/01/20 22:18:40;;;;;;;1.13;0.73;;;;;;;;;;7335424;19;162513;-15
2022/01/20 22:21:15;;;;;;;0.65;0.65;;;;;;;;;;7334599;19;154273;-14
2022/01/20 22:23:47;;;;;;;1.98;1.00;;;;;;;;;;7335864;19;153552;-16
2022/01/20 22:26:19;;;;;;;0.85;0.85;;;;;;;;;;7333226;19;161931;-15
2022/01/20 22:28:52;;;;;;;0.98;0.88;;;;;;;;;;7335019;19;162396;-14
2022/01/20 22:31:26;;;;;;;1.02;0.90;;;;;;;;;;7335626;19;154267;-14
2022/01/20 22:33:57;;;;;;;1.08;0.80;;;;;;;;;;7331919;19;153571;-14
2022/01/20 22:36:29;;;;;;;0.60;0.60;;;;;;;;;;7331898;19;161978;-15
2022/01/20 22:39:00;;;;;;;1.00;0.73;;;;;;;;;;7332528;19;162383;-13
2022/01/20 22:41:32;;;;;;;2.55;0.90;;;;;;;;;;7332360;19;153804;-15
2022/01/20 22:44:03;;;;;;;1.45;0.60;;;;;;;;;;7331797;19;153547;-14
2022/01/20 22:46:37;;;;;;;1.10;0.70;;;;;;;;;;7331684;19;161866;-14
2022/01/20 22:49:11;;;;;;;0.73;0.60;;;;;;;;;;7331547;19;162448;-15
2022/01/20 22:51:42;;;;;;;1.02;0.80;;;;;;;;;;7331944;19;154284;-15
2022/01/20 22:54:14;;;;;;;1.05;0.70;;;;;;;;;;7330321;19;153446;-15
2022/01/20 22:56:46;;;;;;;0.95;0.70;;;;;;;;;;7331667;19;161856;-14
2022/01/20 22:59:17;;;;;;;3.95;1.05;;;;;;;;;;7331314;19;162441;-13
2022/01/20 23:01:52;;;;;;;0.77;0.60;;;;;;;;;;7331680;19;154108;-15
2022/01/20 23:04:23;;;;;;;1.85;0.80;;;;;;;;;;7329276;19;153608;-14
2022/01/20 23:06:54;;;;;;;0.70;0.70;;;;;;;;;;7332077;19;163550;-14
2022/01/20 23:09:26;;;;;;;2.05;0.88;;;;;;;;;;7330451;19;162393;-14
2022/01/20 23:11:58;;;;;;;1.20;0.70;;;;;;;;;;7327341;19;154091;-14
2022/01/20 23:14:29;;;;;;;0.50;0.50;;;;;;;;;;7327094;19;153642;-14
2022/01/20 23:17:06;;;;;;;0.70;0.70;;;;;;;;;;7328087;19;162100;-14
2022/01/20 23:22:21;;;;;;;2.63;0.93;;;;;;;;;;7328714;19;154194;-14
2022/01/20 23:24:52;;;;;;;1.83;0.95;;;;;;;;;;7326198;19;153574;-14
2022/01/20 23:27:24;;;;;;;0.93;0.80;;;;;;;;;;7326629;19;162053;-15
2022/01/20 23:29:55;;;;;;;1.23;0.68;;;;;;;;;;7326822;19;162366;-13
2022/01/20 23:32:29;;;;;;;0.75;0.50;;;;;;;;;;7330426;19;154434;-13
2022/01/20 23:35:00;;;;;;;0.52;0.52;;;;;;;;;;7326348;19;153521;-13
2022/01/20 23:37:32;;;;;;;0.68;0.50;;;;;;;;;;7327177;19;162078;-14
2022/01/20 23:40:03;;;;;;;2.05;0.80;;;;;;;;;;7328925;19;162534;-13
2022/01/20 23:42:45;;;;;;;1.65;0.80;;;;;;;;;;7334199;19;154096;-12
2022/01/20 23:45:25;;;;;;;1.90;0.70;;;;;;;;;;7330069;19;153509;-12
2022/01/20 23:48:08;;;;;;;0.60;0.60;;;;;;;;;;7329654;19;162667;-12
2022/01/20 23:50:41;;;;;;;0.88;0.77;;;;;;;;;;7327198;19;162419;-13